sensor_id;sensor_type;location;lat;lon;timestamp;P1;P2;P0
67892;PMS7003;54688;52.376;16.744;2022-12-29T00:01:15;14;11;
67892;PMS7003;54688;52.376;16.744;2022-12-29T00:04:18;14;12;
67892;PMS7003;54688;52.376;16.744;2022-12-29T00:07:20;13;12;
67892;PMS7003;54688;52.376;16.744;2022-12-29T00:10:23;13;9;
67892;PMS7003;54688;52.376;16.744;2022-12-29T00:13:25;11;11;
67892;PMS7003;54688;52.376;16.744;2022-12-29T00:16:28;11;10;
67892;PMS7003;54688;52.376;16.744;2022-12-29T00:19:30;12;10;
67892;PMS7003;54688;52.376;16.744;2022-12-29T00:22:33;16;11;
67892;PMS7003;54688;52.376;16.744;2022-12-29T00:25:35;11;11;
67892;PMS7003;54688;52.376;16.744;2022-12-29T00:28:38;16;14;
67892;PMS7003;54688;52.376;16.744;2022-12-29T00:31:40;16;14;
67892;PMS7003;54688;52.376;16.744;2022-12-29T00:34:42;15;11;
67892;PMS7003;54688;52.376;16.744;2022-12-29T00:37:47;16;12;
67892;PMS7003;54688;52.376;16.744;2022-12-29T00:40:50;18;18;
67892;PMS7003;54688;52.376;16.744;2022-12-29T00:43:52;12;12;
67892;PMS7003;54688;52.376;16.744;2022-12-29T00:46:55;13;13;
67892;PMS7003;54688;52.376;16.744;2022-12-29T00:49:56;15;13;
67892;PMS7003;54688;52.376;16.744;2022-12-29T00:52:59;16;14;
67892;PMS7003;54688;52.376;16.744;2022-12-29T00:56:01;17;11;
67892;PMS7003;54688;52.376;16.744;2022-12-29T00:59:05;16;14;
67892;PMS7003;54688;52.376;16.744;2022-12-29T01:02:07;13;12;
67892;PMS7003;54688;52.376;16.744;2022-12-29T01:05:10;12;11;
67892;PMS7003;54688;52.376;16.744;2022-12-29T01:08:12;15;11;
67892;PMS7003;54688;52.376;16.744;2022-12-29T01:11:14;12;11;
67892;PMS7003;54688;52.376;16.744;2022-12-29T01:14:17;15;13;
67892;PMS7003;54688;52.376;16.744;2022-12-29T01:17:21;16;12;
67892;PMS7003;54688;52.376;16.744;2022-12-29T01:20:23;10;9;
67892;PMS7003;54688;52.376;16.744;2022-12-29T01:23:25;14;11;
67892;PMS7003;54688;52.376;16.744;2022-12-29T01:26:27;14;9;
67892;PMS7003;54688;52.376;16.744;2022-12-29T01:29:29;12;12;
67892;PMS7003;54688;52.376;16.744;2022-12-29T01:32:31;12;11;
67892;PMS7003;54688;52.376;16.744;2022-12-29T01:35:34;12;11;
67892;PMS7003;54688;52.376;16.744;2022-12-29T01:38:37;16;12;
67892;PMS7003;54688;52.376;16.744;2022-12-29T01:41:39;8;8;
67892;PMS7003;54688;52.376;16.744;2022-12-29T01:44:49;9;9;
67892;PMS7003;54688;52.376;16.744;2022-12-29T01:47:55;8;8;
67892;PMS7003;54688;52.376;16.744;2022-12-29T01:50:59;8;8;
67892;PMS7003;54688;52.376;16.744;2022-12-29T01:54:07;14;9;
67892;PMS7003;54688;52.376;16.744;2022-12-29T01:57:14;14;8;
67892;PMS7003;54688;52.376;16.744;2022-12-29T02:00:19;11;9;
67892;PMS7003;54688;52.376;16.744;2022-12-29T02:03:23;8;7;
67892;PMS7003;54688;52.376;16.744;2022-12-29T02:06:29;8;8;
67892;PMS7003;54688;52.376;16.744;2022-12-29T02:09:35;13;8;
67892;PMS7003;54688;52.376;16.744;2022-12-29T02:12:37;7;7;
67892;PMS7003;54688;52.376;16.744;2022-12-29T02:15:48;9;9;
67892;PMS7003;54688;52.376;16.744;2022-12-29T02:19:01;10;8;
67892;PMS7003;54688;52.376;16.744;2022-12-29T02:22:14;11;7;
67892;PMS7003;54688;52.376;16.744;2022-12-29T02:25:35;9;7;
67892;PMS7003;54688;52.376;16.744;2022-12-29T02:28:58;6;6;
67892;PMS7003;54688;52.376;16.744;2022-12-29T02:32:07;6;6;
67892;PMS7003;54688;52.376;16.744;2022-12-29T02:35:21;11;9;
67892;PMS7003;54688;52.376;16.744;2022-12-29T02:38:34;9;8;
67892;PMS7003;54688;52.376;16.744;2022-12-29T02:41:49;8;7;
67892;PMS7003;54688;52.376;16.744;2022-12-29T02:44:56;7;7;
67892;PMS7003;54688;52.376;16.744;2022-12-29T02:48:08;8;7;
67892;PMS7003;54688;52.376;16.744;2022-12-29T02:51:18;8;6;
67892;PMS7003;54688;52.376;16.744;2022-12-29T02:54:22;11;9;
67892;PMS7003;54688;52.376;16.744;2022-12-29T02:57:30;10;10;
67892;PMS7003;54688;52.376;16.744;2022-12-29T03:03:44;10;9;
67892;PMS7003;54688;52.376;16.744;2022-12-29T03:06:54;11;9;
67892;PMS7003;54688;52.376;16.744;2022-12-29T03:10:03;9;7;
67892;PMS7003;54688;52.376;16.744;2022-12-29T03:13:13;11;9;
67892;PMS7003;54688;52.376;16.744;2022-12-29T03:16:23;7;7;
67892;PMS7003;54688;52.376;16.744;2022-12-29T03:19:30;7;7;
67892;PMS7003;54688;52.376;16.744;2022-12-29T03:22:39;10;8;
67892;PMS7003;54688;52.376;16.744;2022-12-29T03:25:47;15;7;
67892;PMS7003;54688;52.376;16.744;2022-12-29T03:28:52;8;8;
67892;PMS7003;54688;52.376;16.744;2022-12-29T03:31:56;9;8;
67892;PMS7003;54688;52.376;16.744;2022-12-29T03:35:02;11;8;
67892;PMS7003;54688;52.376;16.744;2022-12-29T03:38:09;13;6;
67892;PMS7003;54688;52.376;16.744;2022-12-29T03:41:16;6;6;
67892;PMS7003;54688;52.376;16.744;2022-12-29T03:44:19;5;5;
67892;PMS7003;54688;52.376;16.744;2022-12-29T03:47:23;8;7;
67892;PMS7003;54688;52.376;16.744;2022-12-29T03:50:26;5;5;
67892;PMS7003;54688;52.376;16.744;2022-12-29T03:53:28;6;6;
67892;PMS7003;54688;52.376;16.744;2022-12-29T03:56:29;6;4;
67892;PMS7003;54688;52.376;16.744;2022-12-29T03:59:32;7;6;
67892;PMS7003;54688;52.376;16.744;2022-12-29T04:02:34;9;7;
67892;PMS7003;54688;52.376;16.744;2022-12-29T04:05:37;11;7;
67892;PMS7003;54688;52.376;16.744;2022-12-29T04:08:39;7;6;
67892;PMS7003;54688;52.376;16.744;2022-12-29T04:11:42;9;6;
67892;PMS7003;54688;52.376;16.744;2022-12-29T04:14:43;7;6;
67892;PMS7003;54688;52.376;16.744;2022-12-29T04:17:46;11;9;
67892;PMS7003;54688;52.376;16.744;2022-12-29T04:20:48;13;10;
67892;PMS7003;54688;52.376;16.744;2022-12-29T04:23:50;11;7;
67892;PMS7003;54688;52.376;16.744;2022-12-29T04:26:53;13;10;
67892;PMS7003;54688;52.376;16.744;2022-12-29T04:29:55;9;9;
67892;PMS7003;54688;52.376;16.744;2022-12-29T04:32:58;10;8;
67892;PMS7003;54688;52.376;16.744;2022-12-29T04:36:01;11;7;
67892;PMS7003;54688;52.376;16.744;2022-12-29T04:39:03;10;8;
67892;PMS7003;54688;52.376;16.744;2022-12-29T04:42:06;10;7;
67892;PMS7003;54688;52.376;16.744;2022-12-29T04:45:09;6;6;
67892;PMS7003;54688;52.376;16.744;2022-12-29T04:48:12;5;5;
67892;PMS7003;54688;52.376;16.744;2022-12-29T04:51:14;8;8;
67892;PMS7003;54688;52.376;16.744;2022-12-29T04:54:16;6;6;
67892;PMS7003;54688;52.376;16.744;2022-12-29T04:57:19;6;6;
67892;PMS7003;54688;52.376;16.744;2022-12-29T05:00:21;9;7;
67892;PMS7003;54688;52.376;16.744;2022-12-29T05:03:23;7;7;
67892;PMS7003;54688;52.376;16.744;2022-12-29T05:06:25;7;7;
67892;PMS7003;54688;52.376;16.744;2022-12-29T05:09:28;7;5;
67892;PMS7003;54688;52.376;16.744;2022-12-29T05:12:30;7;5;
67892;PMS7003;54688;52.376;16.744;2022-12-29T05:15:33;6;5;
67892;PMS7003;54688;52.376;16.744;2022-12-29T05:18:35;11;6;
67892;PMS7003;54688;52.376;16.744;2022-12-29T05:24:35;8;7;
67892;PMS7003;54688;52.376;16.744;2022-12-29T05:27:38;10;8;
67892;PMS7003;54688;52.376;16.744;2022-12-29T05:30:40;10;9;
67892;PMS7003;54688;52.376;16.744;2022-12-29T05:33:42;7;7;
67892;PMS7003;54688;52.376;16.744;2022-12-29T05:36:45;10;7;
67892;PMS7003;54688;52.376;16.744;2022-12-29T05:39:48;11;9;
67892;PMS7003;54688;52.376;16.744;2022-12-29T05:42:50;6;6;
67892;PMS7003;54688;52.376;16.744;2022-12-29T05:45:53;7;6;
67892;PMS7003;54688;52.376;16.744;2022-12-29T05:48:56;7;7;
67892;PMS7003;54688;52.376;16.744;2022-12-29T05:51:58;8;8;
67892;PMS7003;54688;52.376;16.744;2022-12-29T05:55:01;10;7;
67892;PMS7003;54688;52.376;16.744;2022-12-29T05:58:04;9;9;
67892;PMS7003;54688;52.376;16.744;2022-12-29T06:01:06;7;7;
67892;PMS7003;54688;52.376;16.744;2022-12-29T06:04:09;10;8;
67892;PMS7003;54688;52.376;16.744;2022-12-29T06:07:11;13;8;
67892;PMS7003;54688;52.376;16.744;2022-12-29T06:10:14;11;9;
67892;PMS7003;54688;52.376;16.744;2022-12-29T06:13:17;13;10;
67892;PMS7003;54688;52.376;16.744;2022-12-29T06:16:19;10;8;
67892;PMS7003;54688;52.376;16.744;2022-12-29T06:19:21;9;6;
67892;PMS7003;54688;52.376;16.744;2022-12-29T06:22:23;6;6;
67892;PMS7003;54688;52.376;16.744;2022-12-29T06:25:25;11;8;
67892;PMS7003;54688;52.376;16.744;2022-12-29T06:28:27;8;6;
67892;PMS7003;54688;52.376;16.744;2022-12-29T06:31:30;6;6;
67892;PMS7003;54688;52.376;16.744;2022-12-29T06:34:32;8;6;
67892;PMS7003;54688;52.376;16.744;2022-12-29T06:37:35;11;9;
67892;PMS7003;54688;52.376;16.744;2022-12-29T06:40:37;7;7;
67892;PMS7003;54688;52.376;16.744;2022-12-29T06:43:39;10;10;
67892;PMS7003;54688;52.376;16.744;2022-12-29T06:46:41;8;7;
67892;PMS7003;54688;52.376;16.744;2022-12-29T06:49:44;12;8;
67892;PMS7003;54688;52.376;16.744;2022-12-29T06:52:46;6;6;
67892;PMS7003;54688;52.376;16.744;2022-12-29T06:55:49;8;6;
67892;PMS7003;54688;52.376;16.744;2022-12-29T06:58:52;10;8;
67892;PMS7003;54688;52.376;16.744;2022-12-29T07:01:54;6;6;
67892;PMS7003;54688;52.376;16.744;2022-12-29T07:04:56;8;7;
67892;PMS7003;54688;52.376;16.744;2022-12-29T07:07:59;9;9;
67892;PMS7003;54688;52.376;16.744;2022-12-29T07:11:01;8;7;
67892;PMS7003;54688;52.376;16.744;2022-12-29T07:14:04;10;7;
67892;PMS7003;54688;52.376;16.744;2022-12-29T07:17:06;10;7;
67892;PMS7003;54688;52.376;16.744;2022-12-29T07:20:09;8;6;
67892;PMS7003;54688;52.376;16.744;2022-12-29T07:23:11;7;7;
67892;PMS7003;54688;52.376;16.744;2022-12-29T07:26:15;6;5;
67892;PMS7003;54688;52.376;16.744;2022-12-29T07:29:18;8;6;
67892;PMS7003;54688;52.376;16.744;2022-12-29T07:32:19;18;15;
67892;PMS7003;54688;52.376;16.744;2022-12-29T07:35:22;5;5;
67892;PMS7003;54688;52.376;16.744;2022-12-29T07:38:24;7;5;
67892;PMS7003;54688;52.376;16.744;2022-12-29T07:41:27;8;6;
67892;PMS7003;54688;52.376;16.744;2022-12-29T07:44:30;5;4;
67892;PMS7003;54688;52.376;16.744;2022-12-29T07:47:32;6;6;
67892;PMS7003;54688;52.376;16.744;2022-12-29T07:50:35;8;6;
67892;PMS7003;54688;52.376;16.744;2022-12-29T07:53:37;13;7;
67892;PMS7003;54688;52.376;16.744;2022-12-29T07:56:40;10;6;
67892;PMS7003;54688;52.376;16.744;2022-12-29T07:59:42;8;6;
67892;PMS7003;54688;52.376;16.744;2022-12-29T08:02:44;8;4;
67892;PMS7003;54688;52.376;16.744;2022-12-29T08:05:47;8;4;
67892;PMS7003;54688;52.376;16.744;2022-12-29T08:08:49;4;4;
67892;PMS7003;54688;52.376;16.744;2022-12-29T08:11:51;7;4;
67892;PMS7003;54688;52.376;16.744;2022-12-29T08:14:53;5;4;
67892;PMS7003;54688;52.376;16.744;2022-12-29T08:17:56;4;4;
67892;PMS7003;54688;52.376;16.744;2022-12-29T08:21:01;3;3;
67892;PMS7003;54688;52.376;16.744;2022-12-29T08:24:03;4;4;
67892;PMS7003;54688;52.376;16.744;2022-12-29T08:27:07;6;3;
67892;PMS7003;54688;52.376;16.744;2022-12-29T08:30:10;4;3;
67892;PMS7003;54688;52.376;16.744;2022-12-29T08:33:12;3;3;
67892;PMS7003;54688;52.376;16.744;2022-12-29T08:36:14;7;4;
67892;PMS7003;54688;52.376;16.744;2022-12-29T08:42:16;4;4;
67892;PMS7003;54688;52.376;16.744;2022-12-29T08:45:19;5;4;
67892;PMS7003;54688;52.376;16.744;2022-12-29T08:48:21;4;3;
67892;PMS7003;54688;52.376;16.744;2022-12-29T08:51:24;6;5;
67892;PMS7003;54688;52.376;16.744;2022-12-29T08:54:26;3;3;
67892;PMS7003;54688;52.376;16.744;2022-12-29T08:57:28;7;5;
67892;PMS7003;54688;52.376;16.744;2022-12-29T09:00:30;7;5;
67892;PMS7003;54688;52.376;16.744;2022-12-29T09:03:33;5;4;
67892;PMS7003;54688;52.376;16.744;2022-12-29T09:06:35;4;3;
67892;PMS7003;54688;52.376;16.744;2022-12-29T09:09:38;4;3;
67892;PMS7003;54688;52.376;16.744;2022-12-29T09:12:40;6;5;
67892;PMS7003;54688;52.376;16.744;2022-12-29T09:15:43;3;3;
67892;PMS7003;54688;52.376;16.744;2022-12-29T09:18:45;6;6;
67892;PMS7003;54688;52.376;16.744;2022-12-29T09:21:48;7;6;
67892;PMS7003;54688;52.376;16.744;2022-12-29T09:24:51;7;4;
67892;PMS7003;54688;52.376;16.744;2022-12-29T09:27:53;7;5;
67892;PMS7003;54688;52.376;16.744;2022-12-29T09:30:56;7;7;
67892;PMS7003;54688;52.376;16.744;2022-12-29T09:33:59;8;6;
67892;PMS7003;54688;52.376;16.744;2022-12-29T09:37:01;7;6;
67892;PMS7003;54688;52.376;16.744;2022-12-29T09:40:05;13;12;
67892;PMS7003;54688;52.376;16.744;2022-12-29T09:43:25;10;10;
67892;PMS7003;54688;52.376;16.744;2022-12-29T09:46:34;9;7;
67892;PMS7003;54688;52.376;16.744;2022-12-29T09:49:40;8;5;
67892;PMS7003;54688;52.376;16.744;2022-12-29T09:52:49;7;4;
67892;PMS7003;54688;52.376;16.744;2022-12-29T09:55:55;12;8;
67892;PMS7003;54688;52.376;16.744;2022-12-29T09:59:00;7;4;
67892;PMS7003;54688;52.376;16.744;2022-12-29T10:02:15;8;8;
67892;PMS7003;54688;52.376;16.744;2022-12-29T10:05:29;6;4;
67892;PMS7003;54688;52.376;16.744;2022-12-29T10:08:39;5;4;
67892;PMS7003;54688;52.376;16.744;2022-12-29T10:11:57;8;7;
67892;PMS7003;54688;52.376;16.744;2022-12-29T10:15:08;8;7;
67892;PMS7003;54688;52.376;16.744;2022-12-29T10:18:28;10;9;
67892;PMS7003;54688;52.376;16.744;2022-12-29T10:24:34;6;5;
67892;PMS7003;54688;52.376;16.744;2022-12-29T10:27:39;6;4;
67892;PMS7003;54688;52.376;16.744;2022-12-29T10:30:43;6;5;
67892;PMS7003;54688;52.376;16.744;2022-12-29T10:33:49;9;6;
67892;PMS7003;54688;52.376;16.744;2022-12-29T10:36:54;7;5;
67892;PMS7003;54688;52.376;16.744;2022-12-29T10:40:03;5;5;
67892;PMS7003;54688;52.376;16.744;2022-12-29T10:43:22;4;4;
67892;PMS7003;54688;52.376;16.744;2022-12-29T10:46:29;9;5;
67892;PMS7003;54688;52.376;16.744;2022-12-29T10:52:32;5;4;
67892;PMS7003;54688;52.376;16.744;2022-12-29T10:55:36;5;5;
67892;PMS7003;54688;52.376;16.744;2022-12-29T10:58:40;6;3;
67892;PMS7003;54688;52.376;16.744;2022-12-29T11:01:50;5;5;
67892;PMS7003;54688;52.376;16.744;2022-12-29T11:05:02;5;5;
67892;PMS7003;54688;52.376;16.744;2022-12-29T11:08:10;6;5;
67892;PMS7003;54688;52.376;16.744;2022-12-29T11:11:22;5;3;
67892;PMS7003;54688;52.376;16.744;2022-12-29T11:14:27;4;4;
67892;PMS7003;54688;52.376;16.744;2022-12-29T11:17:43;7;4;
67892;PMS7003;54688;52.376;16.744;2022-12-29T11:20:45;4;4;
67892;PMS7003;54688;52.376;16.744;2022-12-29T11:23:55;5;3;
67892;PMS7003;54688;52.376;16.744;2022-12-29T11:27:13;5;2;
67892;PMS7003;54688;52.376;16.744;2022-12-29T11:30:23;4;4;
67892;PMS7003;54688;52.376;16.744;2022-12-29T11:33:27;5;5;
67892;PMS7003;54688;52.376;16.744;2022-12-29T11:36:30;3;3;
67892;PMS7003;54688;52.376;16.744;2022-12-29T11:39:37;4;4;
67892;PMS7003;54688;52.376;16.744;2022-12-29T11:42:43;5;3;
67892;PMS7003;54688;52.376;16.744;2022-12-29T11:45:52;5;5;
67892;PMS7003;54688;52.376;16.744;2022-12-29T11:48:56;9;6;
67892;PMS7003;54688;52.376;16.744;2022-12-29T11:51:58;3;3;
67892;PMS7003;54688;52.376;16.744;2022-12-29T11:55:03;3;3;
67892;PMS7003;54688;52.376;16.744;2022-12-29T11:58:06;4;3;
67892;PMS7003;54688;52.376;16.744;2022-12-29T12:01:15;5;4;
67892;PMS7003;54688;52.376;16.744;2022-12-29T12:04:21;7;4;
67892;PMS7003;54688;52.376;16.744;2022-12-29T12:07:32;5;4;
67892;PMS7003;54688;52.376;16.744;2022-12-29T12:10:39;3;2;
67892;PMS7003;54688;52.376;16.744;2022-12-29T12:13:54;7;3;
67892;PMS7003;54688;52.376;16.744;2022-12-29T12:17:02;3;3;
67892;PMS7003;54688;52.376;16.744;2022-12-29T12:20:15;5;2;
67892;PMS7003;54688;52.376;16.744;2022-12-29T12:23:30;4;3;
67892;PMS7003;54688;52.376;16.744;2022-12-29T12:26:37;4;4;
67892;PMS7003;54688;52.376;16.744;2022-12-29T12:29:47;7;4;
67892;PMS7003;54688;52.376;16.744;2022-12-29T12:32:56;3;3;
67892;PMS7003;54688;52.376;16.744;2022-12-29T12:36:13;1;1;
67892;PMS7003;54688;52.376;16.744;2022-12-29T12:39:25;4;3;
67892;PMS7003;54688;52.376;16.744;2022-12-29T12:42:36;7;4;
67892;PMS7003;54688;52.376;16.744;2022-12-29T12:48:56;4;4;
67892;PMS7003;54688;52.376;16.744;2022-12-29T12:52:08;3;3;
67892;PMS7003;54688;52.376;16.744;2022-12-29T12:55:28;3;3;
67892;PMS7003;54688;52.376;16.744;2022-12-29T12:58:37;4;2;
67892;PMS7003;54688;52.376;16.744;2022-12-29T13:01:50;4;2;
67892;PMS7003;54688;52.376;16.744;2022-12-29T13:05:13;4;2;
67892;PMS7003;54688;52.376;16.744;2022-12-29T13:08:30;6;3;
67892;PMS7003;54688;52.376;16.744;2022-12-29T13:11:42;3;2;
67892;PMS7003;54688;52.376;16.744;2022-12-29T13:14:56;5;4;
67892;PMS7003;54688;52.376;16.744;2022-12-29T13:18:03;5;4;
67892;PMS7003;54688;52.376;16.744;2022-12-29T13:21:13;7;4;
67892;PMS7003;54688;52.376;16.744;2022-12-29T13:24:23;4;4;
67892;PMS7003;54688;52.376;16.744;2022-12-29T13:27:33;1;1;
67892;PMS7003;54688;52.376;16.744;2022-12-29T13:30:42;2;2;
67892;PMS7003;54688;52.376;16.744;2022-12-29T13:33:51;5;4;
67892;PMS7003;54688;52.376;16.744;2022-12-29T13:36:59;5;5;
67892;PMS7003;54688;52.376;16.744;2022-12-29T13:40:04;4;4;
67892;PMS7003;54688;52.376;16.744;2022-12-29T13:43:13;8;3;
67892;PMS7003;54688;52.376;16.744;2022-12-29T13:46:22;5;5;
67892;PMS7003;54688;52.376;16.744;2022-12-29T13:49:25;5;4;
67892;PMS7003;54688;52.376;16.744;2022-12-29T13:52:34;6;6;
67892;PMS7003;54688;52.376;16.744;2022-12-29T13:55:40;8;8;
67892;PMS7003;54688;52.376;16.744;2022-12-29T13:58:53;6;6;
67892;PMS7003;54688;52.376;16.744;2022-12-29T14:02:00;9;7;
67892;PMS7003;54688;52.376;16.744;2022-12-29T14:05:26;10;8;
67892;PMS7003;54688;52.376;16.744;2022-12-29T14:08:33;5;5;
67892;PMS7003;54688;52.376;16.744;2022-12-29T14:11:39;8;7;
67892;PMS7003;54688;52.376;16.744;2022-12-29T14:14:42;7;3;
67892;PMS7003;54688;52.376;16.744;2022-12-29T14:18:00;7;6;
67892;PMS7003;54688;52.376;16.744;2022-12-29T14:21:09;6;6;
67892;PMS7003;54688;52.376;16.744;2022-12-29T14:24:37;6;6;
67892;PMS7003;54688;52.376;16.744;2022-12-29T14:27:50;8;6;
67892;PMS7003;54688;52.376;16.744;2022-12-29T14:30:54;8;6;
67892;PMS7003;54688;52.376;16.744;2022-12-29T14:34:16;9;6;
67892;PMS7003;54688;52.376;16.744;2022-12-29T14:37:24;7;7;
67892;PMS7003;54688;52.376;16.744;2022-12-29T14:40:27;17;14;
67892;PMS7003;54688;52.376;16.744;2022-12-29T14:43:28;19;17;
67892;PMS7003;54688;52.376;16.744;2022-12-29T14:47:05;17;12;
67892;PMS7003;54688;52.376;16.744;2022-12-29T14:50:14;11;10;
67892;PMS7003;54688;52.376;16.744;2022-12-29T14:53:42;14;11;
67892;PMS7003;54688;52.376;16.744;2022-12-29T14:56:45;26;20;
67892;PMS7003;54688;52.376;16.744;2022-12-29T14:59:53;13;11;
67892;PMS7003;54688;52.376;16.744;2022-12-29T15:03:03;13;7;
67892;PMS7003;54688;52.376;16.744;2022-12-29T15:06:09;6;6;
67892;PMS7003;54688;52.376;16.744;2022-12-29T15:09:22;9;7;
67892;PMS7003;54688;52.376;16.744;2022-12-29T15:12:32;9;7;
67892;PMS7003;54688;52.376;16.744;2022-12-29T15:15:37;13;9;
67892;PMS7003;54688;52.376;16.744;2022-12-29T15:18:43;9;8;
67892;PMS7003;54688;52.376;16.744;2022-12-29T15:21:45;9;5;
67892;PMS7003;54688;52.376;16.744;2022-12-29T15:24:50;5;5;
67892;PMS7003;54688;52.376;16.744;2022-12-29T15:27:58;7;5;
67892;PMS7003;54688;52.376;16.744;2022-12-29T15:31:04;4;4;
67892;PMS7003;54688;52.376;16.744;2022-12-29T15:34:10;5;5;
67892;PMS7003;54688;52.376;16.744;2022-12-29T15:37:18;8;4;
67892;PMS7003;54688;52.376;16.744;2022-12-29T15:40:23;6;6;
67892;PMS7003;54688;52.376;16.744;2022-12-29T15:43:49;7;7;
67892;PMS7003;54688;52.376;16.744;2022-12-29T15:46:52;9;6;
67892;PMS7003;54688;52.376;16.744;2022-12-29T15:50:02;6;3;
67892;PMS7003;54688;52.376;16.744;2022-12-29T15:53:10;14;12;
67892;PMS7003;54688;52.376;16.744;2022-12-29T15:56:12;19;17;
67892;PMS7003;54688;52.376;16.744;2022-12-29T15:59:23;19;15;
67892;PMS7003;54688;52.376;16.744;2022-12-29T16:02:26;15;13;
67892;PMS7003;54688;52.376;16.744;2022-12-29T16:05:33;30;23;
67892;PMS7003;54688;52.376;16.744;2022-12-29T16:08:38;37;28;
67892;PMS7003;54688;52.376;16.744;2022-12-29T16:11:44;27;20;
67892;PMS7003;54688;52.376;16.744;2022-12-29T16:14:51;17;14;
67892;PMS7003;54688;52.376;16.744;2022-12-29T16:17:54;8;7;
67892;PMS7003;54688;52.376;16.744;2022-12-29T16:20:57;11;11;
67892;PMS7003;54688;52.376;16.744;2022-12-29T16:24:00;8;8;
67892;PMS7003;54688;52.376;16.744;2022-12-29T16:27:07;7;7;
67892;PMS7003;54688;52.376;16.744;2022-12-29T16:30:19;11;9;
67892;PMS7003;54688;52.376;16.744;2022-12-29T16:33:36;10;10;
67892;PMS7003;54688;52.376;16.744;2022-12-29T16:36:51;9;9;
67892;PMS7003;54688;52.376;16.744;2022-12-29T16:39:53;12;10;
67892;PMS7003;54688;52.376;16.744;2022-12-29T16:42:58;15;12;
67892;PMS7003;54688;52.376;16.744;2022-12-29T16:46:17;14;10;
67892;PMS7003;54688;52.376;16.744;2022-12-29T16:49:20;14;10;
67892;PMS7003;54688;52.376;16.744;2022-12-29T16:52:25;12;9;
67892;PMS7003;54688;52.376;16.744;2022-12-29T16:55:31;9;8;
67892;PMS7003;54688;52.376;16.744;2022-12-29T16:58:34;6;6;
67892;PMS7003;54688;52.376;16.744;2022-12-29T17:01:38;11;6;
67892;PMS7003;54688;52.376;16.744;2022-12-29T17:04:40;9;7;
67892;PMS7003;54688;52.376;16.744;2022-12-29T17:07:43;10;8;
67892;PMS7003;54688;52.376;16.744;2022-12-29T17:10:46;14;13;
67892;PMS7003;54688;52.376;16.744;2022-12-29T17:13:49;10;9;
67892;PMS7003;54688;52.376;16.744;2022-12-29T17:16:51;12;10;
67892;PMS7003;54688;52.376;16.744;2022-12-29T17:19:55;10;7;
67892;PMS7003;54688;52.376;16.744;2022-12-29T17:22:58;11;10;
67892;PMS7003;54688;52.376;16.744;2022-12-29T17:26:01;13;10;
67892;PMS7003;54688;52.376;16.744;2022-12-29T17:29:03;13;11;
67892;PMS7003;54688;52.376;16.744;2022-12-29T17:32:11;18;13;
67892;PMS7003;54688;52.376;16.744;2022-12-29T17:35:15;23;20;
67892;PMS7003;54688;52.376;16.744;2022-12-29T17:38:19;22;13;
67892;PMS7003;54688;52.376;16.744;2022-12-29T17:41:21;16;15;
67892;PMS7003;54688;52.376;16.744;2022-12-29T17:44:24;17;12;
67892;PMS7003;54688;52.376;16.744;2022-12-29T17:47:27;12;10;
67892;PMS7003;54688;52.376;16.744;2022-12-29T17:53:29;15;11;
67892;PMS7003;54688;52.376;16.744;2022-12-29T17:56:32;16;10;
67892;PMS7003;54688;52.376;16.744;2022-12-29T17:59:35;14;11;
67892;PMS7003;54688;52.376;16.744;2022-12-29T18:02:37;11;7;
67892;PMS7003;54688;52.376;16.744;2022-12-29T18:05:40;15;11;
67892;PMS7003;54688;52.376;16.744;2022-12-29T18:08:42;15;10;
67892;PMS7003;54688;52.376;16.744;2022-12-29T18:11:44;15;13;
67892;PMS7003;54688;52.376;16.744;2022-12-29T18:14:46;19;15;
67892;PMS7003;54688;52.376;16.744;2022-12-29T18:17:48;23;20;
67892;PMS7003;54688;52.376;16.744;2022-12-29T18:20:52;23;21;
67892;PMS7003;54688;52.376;16.744;2022-12-29T18:23:55;33;25;
67892;PMS7003;54688;52.376;16.744;2022-12-29T18:26:57;33;27;
67892;PMS7003;54688;52.376;16.744;2022-12-29T18:30:00;29;26;
67892;PMS7003;54688;52.376;16.744;2022-12-29T18:33:03;25;20;
67892;PMS7003;54688;52.376;16.744;2022-12-29T18:36:08;29;25;
67892;PMS7003;54688;52.376;16.744;2022-12-29T18:39:11;27;24;
67892;PMS7003;54688;52.376;16.744;2022-12-29T18:42:15;29;24;
67892;PMS7003;54688;52.376;16.744;2022-12-29T18:45:20;40;23;
67892;PMS7003;54688;52.376;16.744;2022-12-29T18:48:22;23;22;
67892;PMS7003;54688;52.376;16.744;2022-12-29T18:51:25;30;25;
67892;PMS7003;54688;52.376;16.744;2022-12-29T18:54:29;51;41;
67892;PMS7003;54688;52.376;16.744;2022-12-29T18:57:32;41;32;
67892;PMS7003;54688;52.376;16.744;2022-12-29T19:00:34;53;41;
67892;PMS7003;54688;52.376;16.744;2022-12-29T19:03:37;29;28;
67892;PMS7003;54688;52.376;16.744;2022-12-29T19:06:40;36;30;
67892;PMS7003;54688;52.376;16.744;2022-12-29T19:09:42;41;33;
67892;PMS7003;54688;52.376;16.744;2022-12-29T19:12:44;38;31;
67892;PMS7003;54688;52.376;16.744;2022-12-29T19:15:47;28;25;
67892;PMS7003;54688;52.376;16.744;2022-12-29T19:18:50;41;30;
67892;PMS7003;54688;52.376;16.744;2022-12-29T19:21:52;34;30;
67892;PMS7003;54688;52.376;16.744;2022-12-29T19:24:55;35;30;
67892;PMS7003;54688;52.376;16.744;2022-12-29T19:27:57;33;27;
67892;PMS7003;54688;52.376;16.744;2022-12-29T19:31:01;28;25;
67892;PMS7003;54688;52.376;16.744;2022-12-29T19:34:03;41;32;
67892;PMS7003;54688;52.376;16.744;2022-12-29T19:37:05;33;23;
67892;PMS7003;54688;52.376;16.744;2022-12-29T19:40:09;37;27;
67892;PMS7003;54688;52.376;16.744;2022-12-29T23:09:03;7;7;
67892;PMS7003;54688;52.376;16.744;2022-12-29T23:12:06;8;8;
67892;PMS7003;54688;52.376;16.744;2022-12-29T23:15:09;8;7;
67892;PMS7003;54688;52.376;16.744;2022-12-29T23:18:11;8;8;
67892;PMS7003;54688;52.376;16.744;2022-12-29T23:21:14;12;7;
67892;PMS7003;54688;52.376;16.744;2022-12-29T23:24:17;10;7;
67892;PMS7003;54688;52.376;16.744;2022-12-29T23:27:19;12;6;
67892;PMS7003;54688;52.376;16.744;2022-12-29T23:30:21;9;9;
67892;PMS7003;54688;52.376;16.744;2022-12-29T23:33:23;14;12;
67892;PMS7003;54688;52.376;16.744;2022-12-29T23:36:26;12;9;
67892;PMS7003;54688;52.376;16.744;2022-12-29T23:39:27;8;7;
67892;PMS7003;54688;52.376;16.744;2022-12-29T23:42:29;10;7;
67892;PMS7003;54688;52.376;16.744;2022-12-29T23:45:33;8;8;
67892;PMS7003;54688;52.376;16.744;2022-12-29T23:48:36;6;6;
67892;PMS7003;54688;52.376;16.744;2022-12-29T23:51:39;7;7;
67892;PMS7003;54688;52.376;16.744;2022-12-29T23:54:41;8;7;
67892;PMS7003;54688;52.376;16.744;2022-12-29T23:57:43;7;6;
